createdAt,value
2019-04-21T00:00:45.549Z,51.58
2019-04-21T00:03:19.360Z,51.78
2019-04-21T00:06:03.295Z,51.96
2019-04-21T00:08:45.850Z,51.76
2019-04-21T00:11:02.954Z,51.81
2019-04-21T00:13:20.731Z,51.72
2019-04-21T00:15:40.674Z,51.70
2019-04-21T00:18:07.140Z,51.82
2019-04-21T00:20:39.661Z,52.21
2019-04-21T00:23:19.520Z,52.45
2019-04-21T00:25:44.532Z,52.61
2019-04-21T00:28:25.191Z,52.68
2019-04-21T00:30:45.647Z,52.42
2019-04-21T00:33:05.209Z,52.52
2019-04-21T00:35:27.443Z,52.59
2019-04-21T00:38:13.655Z,52.69
2019-04-21T00:40:41.784Z,52.41
2019-04-21T00:43:11.742Z,52.22
2019-04-21T00:45:31.501Z,52.26
2019-04-21T00:48:12.981Z,52.17
2019-04-21T00:50:40.575Z,52.22
2019-04-21T00:53:05.494Z,52.26
2019-04-21T00:55:38.618Z,51.85
2019-04-21T00:58:03.730Z,52.09
2019-04-21T01:00:36.404Z,52.13
2019-04-21T01:03:04.961Z,52.38
2019-04-21T01:05:27.133Z,52.52
2019-04-21T01:07:59.383Z,52.74
2019-04-21T01:10:20.806Z,52.43
2019-04-21T01:12:58.913Z,52.34
2019-04-21T01:15:31.093Z,52.33
2019-04-21T01:18:01.499Z,52.73
2019-04-21T01:20:15.998Z,52.98
2019-04-21T01:22:34.511Z,53.13
2019-04-21T01:25:12.141Z,53.15
2019-04-21T01:27:50.759Z,53.29
2019-04-21T01:30:19.291Z,53.50
2019-04-21T01:32:48.370Z,53.57
2019-04-21T01:35:16.414Z,53.73
2019-04-21T01:37:49.534Z,53.60
2019-04-21T01:40:16.848Z,53.71
2019-04-21T01:42:45.951Z,53.58
2019-04-21T01:45:11.385Z,53.33
2019-04-21T01:47:36.157Z,53.35
2019-04-21T01:49:56.551Z,53.42
2019-04-21T01:52:44.129Z,53.53
2019-04-21T01:55:06.392Z,53.57
2019-04-21T01:57:33.317Z,53.62
2019-04-21T01:59:54.919Z,53.68
2019-04-21T02:02:32.597Z,53.82
2019-04-21T02:05:04.372Z,53.76
2019-04-21T02:07:27.505Z,53.44
2019-04-21T02:09:59.362Z,53.04
2019-04-21T02:12:30.251Z,53.26
2019-04-21T02:14:58.821Z,53.54
2019-04-21T02:17:23.929Z,53.95
2019-04-21T02:19:45.840Z,54.02
2019-04-21T02:22:25.863Z,53.70
2019-04-21T02:25:08.603Z,53.89
2019-04-21T02:27:19.217Z,53.98
2019-04-21T02:29:47.133Z,54.22
2019-04-21T02:37:36.764Z,54.77
2019-04-21T02:39:57.649Z,54.70
2019-04-21T02:44:52.073Z,54.81
2019-04-21T02:47:21.196Z,54.80
2019-04-21T02:49:56.097Z,54.72
2019-04-21T02:59:47.898Z,54.33
2019-04-21T03:02:25.026Z,54.61
2019-04-21T03:04:42.563Z,54.71
2019-04-21T03:07:13.510Z,54.85
2019-04-21T03:17:10.106Z,55.38
2019-04-21T03:22:05.183Z,55.21
2019-04-21T03:24:50.109Z,55.25
2019-04-21T03:27:12.146Z,55.40
2019-04-21T03:29:44.460Z,55.40
2019-04-21T03:32:14.354Z,55.26
2019-04-21T03:34:41.822Z,55.25
2019-04-21T03:37:14.024Z,55.46
2019-04-21T03:39:29.508Z,55.56
2019-04-21T03:41:59.772Z,55.50
2019-04-21T03:46:53.076Z,55.96
2019-04-21T03:49:27.973Z,55.93
2019-04-21T03:51:48.659Z,55.88
2019-04-21T03:54:18.162Z,56.04
2019-04-21T03:59:03.699Z,56.36
2019-04-21T04:01:44.507Z,56.17
2019-04-21T04:04:22.378Z,56.16
2019-04-21T04:14:14.105Z,56.29
2019-04-21T04:16:37.852Z,56.54
2019-04-21T04:18:57.917Z,56.45
2019-04-21T04:21:48.030Z,56.49
2019-04-21T04:26:39.342Z,56.32
2019-04-21T04:28:54.248Z,56.35
2019-04-21T04:31:35.375Z,56.12
2019-04-21T04:33:55.620Z,55.99
2019-04-21T04:39:01.381Z,56.08
2019-04-21T04:43:49.777Z,56.38
2019-04-21T04:46:18.420Z,56.14
2019-04-21T04:48:41.972Z,56.18
2019-04-21T04:51:33.368Z,56.82
2019-04-21T05:01:14.185Z,57.22
2019-04-21T05:03:43.959Z,56.58
2019-04-21T05:09:04.198Z,56.44
2019-04-21T05:11:30.497Z,56.51
2019-04-21T05:13:54.984Z,56.89
2019-04-21T05:16:25.640Z,57.11
2019-04-21T05:18:52.869Z,57.00
2019-04-21T05:21:24.828Z,56.97
2019-04-21T05:23:41.276Z,56.92
2019-04-21T05:26:01.308Z,57.25
2019-04-21T05:28:28.519Z,57.31
2019-04-21T05:31:06.254Z,57.07
2019-04-21T05:33:38.090Z,57.22
2019-04-21T05:35:56.815Z,57.33
2019-04-21T05:38:30.384Z,57.18
2019-04-21T05:40:48.357Z,57.30
2019-04-21T05:43:28.104Z,57.10
2019-04-21T05:46:02.608Z,57.06
2019-04-21T05:50:49.829Z,56.85
2019-04-21T05:53:26.702Z,57.01
2019-04-21T05:55:58.402Z,56.77
2019-04-21T05:58:11.590Z,56.55
2019-04-21T06:01:15.087Z,56.64
2019-04-21T06:03:29.619Z,56.50
2019-04-21T06:06:03.395Z,56.59
2019-04-21T06:08:17.929Z,56.31
2019-04-21T06:10:53.898Z,56.20
2019-04-21T06:15:49.999Z,56.11
2019-04-21T06:18:25.981Z,55.45
2019-04-21T06:20:51.567Z,54.59
2019-04-21T06:23:12.065Z,54.18
2019-04-21T06:25:54.623Z,53.87
2019-04-21T06:28:11.987Z,53.85
2019-04-21T06:32:59.514Z,53.93
2019-04-21T06:35:54.160Z,53.56
2019-04-21T06:38:03.735Z,53.31
2019-04-21T06:40:36.901Z,52.71
2019-04-21T06:43:15.791Z,52.63
2019-04-21T06:45:36.676Z,52.35
2019-04-21T06:48:08.809Z,52.36
2019-04-21T06:50:37.716Z,51.99
2019-04-21T06:53:20.767Z,51.87
2019-04-21T06:55:27.836Z,51.90
2019-04-21T06:57:58.236Z,51.96
2019-04-21T07:00:31.581Z,52.02
2019-04-21T07:03:11.514Z,51.92
2019-04-21T07:05:38.802Z,51.65
2019-04-21T07:08:14.788Z,51.65
2019-04-21T07:10:30.749Z,51.91
2019-04-21T07:12:52.844Z,52.00
2019-04-21T07:15:30.799Z,52.14
2019-04-21T07:17:59.910Z,52.06
2019-04-21T07:20:21.923Z,52.26
2019-04-21T07:22:54.239Z,51.65
2019-04-21T07:25:26.395Z,50.90
2019-04-21T07:27:52.366Z,50.38
2019-04-21T07:30:21.215Z,50.12
2019-04-21T07:35:17.837Z,50.34
2019-04-21T07:37:52.337Z,50.25
2019-04-21T07:40:09.322Z,49.49
2019-04-21T07:42:40.099Z,49.03
2019-04-21T07:45:04.625Z,48.49
2019-04-21T07:47:42.545Z,48.28
2019-04-21T07:50:08.847Z,48.19
2019-04-21T07:52:55.131Z,48.21
2019-04-21T07:55:18.656Z,48.04
2019-04-21T07:57:31.827Z,47.36
2019-04-21T08:00:16.084Z,45.63
2019-04-21T08:02:29.530Z,44.70
2019-04-21T08:05:05.586Z,44.44
2019-04-21T08:07:30.799Z,43.89
2019-04-21T08:09:51.346Z,42.98
2019-04-21T08:12:20.379Z,43.89
2019-04-21T08:14:50.716Z,43.85
2019-04-21T08:17:16.165Z,43.94
2019-04-21T08:19:43.025Z,43.40
2019-04-21T08:22:18.575Z,43.83
2019-04-21T08:24:50.853Z,43.49
2019-04-21T08:27:18.960Z,43.43
2019-04-21T08:29:45.981Z,43.02
2019-04-21T08:32:19.908Z,42.50
2019-04-21T08:34:49.628Z,42.46
2019-04-21T08:37:15.154Z,42.10
2019-04-21T08:39:53.539Z,41.20
2019-04-21T08:42:03.326Z,41.68
2019-04-21T08:47:07.895Z,41.67
2019-04-21T08:49:35.100Z,40.79
2019-04-21T08:52:16.760Z,40.48
2019-04-21T08:54:29.165Z,39.90
2019-04-21T08:57:01.444Z,40.05
2019-04-21T08:59:31.393Z,38.63
2019-04-21T09:01:55.472Z,38.58
2019-04-21T09:04:24.542Z,38.74
2019-04-21T09:09:23.721Z,38.65
2019-04-21T09:11:50.977Z,38.80
2019-04-21T09:14:21.103Z,37.11
2019-04-21T09:16:44.339Z,36.32
2019-04-21T09:19:20.302Z,35.38
2019-04-21T09:21:43.639Z,36.45
2019-04-21T09:24:14.754Z,36.81
2019-04-21T09:26:36.973Z,36.79
2019-04-21T09:29:03.415Z,36.29
2019-04-21T09:31:24.097Z,36.03
2019-04-21T09:33:50.833Z,36.47
2019-04-21T09:36:20.146Z,36.29
2019-04-21T09:38:50.733Z,35.84
2019-04-21T09:41:18.469Z,36.92
2019-04-21T09:43:46.858Z,36.21
2019-04-21T09:46:11.653Z,35.46
2019-04-21T09:48:50.075Z,34.06
2019-04-21T09:51:07.189Z,34.69
2019-04-21T09:53:38.003Z,34.83
2019-04-21T09:56:05.452Z,35.01
2019-04-21T09:58:38.464Z,35.20
2019-04-21T10:01:09.163Z,33.83
2019-04-21T10:03:39.638Z,33.79
2019-04-21T10:05:59.020Z,33.42
2019-04-21T10:08:27.183Z,33.11
2019-04-21T10:10:54.690Z,32.46
2019-04-21T10:13:23.330Z,32.40
2019-04-21T10:15:56.373Z,33.15
2019-04-21T10:18:29.364Z,33.11
2019-04-21T10:21:01.545Z,33.01
2019-04-21T10:23:39.454Z,32.98
2019-04-21T10:26:12.683Z,33.00
2019-04-21T10:28:48.944Z,31.35
2019-04-21T10:31:20.827Z,32.14
2019-04-21T10:33:48.430Z,32.33
2019-04-21T10:36:15.354Z,32.04
2019-04-21T10:38:46.480Z,30.94
2019-04-21T10:41:11.821Z,31.16
2019-04-21T10:43:38.668Z,31.85
2019-04-21T10:46:06.604Z,31.69
2019-04-21T10:48:35.060Z,31.67
2019-04-21T10:51:03.148Z,31.24
2019-04-21T10:53:31.199Z,30.16
2019-04-21T10:56:11.474Z,28.30
2019-04-21T10:58:26.726Z,29.27
2019-04-21T11:00:54.168Z,28.77
2019-04-21T11:03:22.744Z,29.00
2019-04-21T11:05:50.516Z,29.07
2019-04-21T11:08:23.627Z,29.30
2019-04-21T11:10:45.858Z,28.74
2019-04-21T11:13:12.741Z,28.51
2019-04-21T11:15:39.492Z,27.84
2019-04-21T11:18:06.261Z,27.51
2019-04-21T11:20:33.166Z,26.06
2019-04-21T11:22:59.924Z,25.42
2019-04-21T11:25:26.665Z,24.99
2019-04-21T11:27:53.438Z,25.46
2019-04-21T11:30:20.180Z,26.14
2019-04-21T11:32:48.239Z,25.40
2019-04-21T11:35:15.631Z,23.31
2019-04-21T11:37:44.067Z,22.42
2019-04-21T11:40:14.951Z,22.81
2019-04-21T11:42:39.906Z,23.16
2019-04-21T11:45:08.362Z,23.20
2019-04-21T11:47:36.304Z,23.12
2019-04-21T11:50:05.337Z,22.89
2019-04-21T11:52:32.635Z,22.64
2019-04-21T11:55:00.478Z,22.95
2019-04-21T11:57:30.754Z,22.36
2019-04-21T11:59:56.001Z,22.21
2019-04-21T12:02:23.565Z,23.12
2019-04-21T12:04:51.553Z,23.58
2019-04-21T12:07:19.610Z,22.53
2019-04-21T12:09:47.795Z,23.16
2019-04-21T12:12:15.069Z,23.15
2019-04-21T12:14:41.935Z,23.35
2019-04-21T12:17:09.767Z,25.72
2019-04-21T12:19:36.853Z,25.33
2019-04-21T12:22:11.266Z,23.37
2019-04-21T12:24:33.396Z,24.48
2019-04-21T12:27:02.163Z,24.70
2019-04-21T12:29:30.563Z,24.67
2019-04-21T12:31:57.466Z,23.90
2019-04-21T12:34:24.184Z,23.27
2019-04-21T12:36:50.919Z,24.83
2019-04-21T12:39:18.761Z,23.41
2019-04-21T12:41:46.677Z,22.18
2019-04-21T12:44:13.423Z,23.56
2019-04-21T12:46:40.340Z,24.53
2019-04-21T12:49:07.634Z,24.93
2019-04-21T12:51:35.592Z,25.94
2019-04-21T12:54:03.782Z,23.99
2019-04-21T12:56:31.806Z,23.77
2019-04-21T12:58:59.544Z,23.62
2019-04-21T13:01:27.367Z,21.98
2019-04-21T13:03:55.471Z,23.17
2019-04-21T13:06:23.420Z,22.81
2019-04-21T13:08:58.947Z,22.61
2019-04-21T13:11:19.194Z,22.70
2019-04-21T13:13:46.118Z,21.95
2019-04-21T13:16:13.654Z,22.98
2019-04-21T13:18:41.664Z,22.10
2019-04-21T13:21:09.883Z,22.51
2019-04-21T13:23:37.037Z,22.33
2019-04-21T13:26:04.944Z,22.50
2019-04-21T13:28:32.828Z,21.28
2019-04-21T13:31:00.190Z,21.39
2019-04-21T13:33:27.229Z,22.16
2019-04-21T13:35:55.146Z,22.25
2019-04-21T13:38:30.076Z,22.46
2019-04-21T13:41:04.870Z,22.29
2019-04-21T13:43:20.947Z,21.94
2019-04-21T13:45:47.981Z,21.67
2019-04-21T13:48:14.840Z,21.51
2019-04-21T13:50:41.817Z,22.12
2019-04-21T13:53:09.048Z,21.43
2019-04-21T13:55:37.074Z,21.32
2019-04-21T13:58:04.410Z,21.17
2019-04-21T14:00:31.804Z,20.56
2019-04-21T14:02:58.847Z,20.16
2019-04-21T14:05:26.521Z,20.73
2019-04-21T14:07:54.433Z,20.10
2019-04-21T14:10:21.848Z,19.81
2019-04-21T14:12:48.996Z,19.85
2019-04-21T14:15:20.126Z,20.06
2019-04-21T14:17:47.131Z,18.98
2019-04-21T14:20:15.222Z,19.78
2019-04-21T14:22:42.218Z,19.79
2019-04-21T14:25:09.969Z,19.60
2019-04-21T14:27:36.711Z,20.14
2019-04-21T14:30:08.365Z,20.50
2019-04-21T14:32:35.993Z,18.98
2019-04-21T14:35:06.932Z,19.62
2019-04-21T14:37:36.352Z,19.55
2019-04-21T14:40:13.646Z,19.34
2019-04-21T14:42:48.341Z,18.91
2019-04-21T14:45:20.878Z,19.86
2019-04-21T14:47:53.942Z,19.19
2019-04-21T14:50:26.498Z,19.15
2019-04-21T14:53:01.978Z,19.45
2019-04-21T14:58:33.395Z,19.75
2019-04-21T15:01:10.397Z,18.96
2019-04-21T15:03:41.976Z,19.14
2019-04-21T15:06:17.121Z,19.01
2019-04-21T15:08:57.969Z,19.43
2019-04-21T15:11:27.448Z,20.49
2019-04-21T15:13:59.758Z,20.26
2019-04-21T15:16:31.486Z,19.40
2019-04-21T15:19:04.288Z,19.76
2019-04-21T15:21:40.508Z,19.35
2019-04-21T15:24:08.567Z,20.04
2019-04-21T15:26:35.959Z,20.45
2019-04-21T15:29:03.057Z,20.53
2019-04-21T15:31:34.797Z,20.79
2019-04-21T15:33:59.111Z,21.46
2019-04-21T15:36:27.255Z,20.46
2019-04-21T15:38:54.166Z,20.74
2019-04-21T15:41:20.938Z,19.48
2019-04-21T15:43:48.836Z,20.64
2019-04-21T15:46:15.661Z,21.07
2019-04-21T15:48:42.415Z,20.42
2019-04-21T15:51:10.892Z,20.82
2019-04-21T15:53:37.755Z,21.31
2019-04-21T15:56:04.713Z,21.88
2019-04-21T15:58:32.432Z,22.48
2019-04-21T16:01:00.583Z,21.90
2019-04-21T16:03:28.932Z,22.93
2019-04-21T16:05:55.918Z,22.54
2019-04-21T16:08:22.671Z,22.58
2019-04-21T16:10:56.210Z,22.35
2019-04-21T16:13:19.359Z,22.92
2019-04-21T16:15:46.361Z,23.59
2019-04-21T16:18:14.183Z,23.38
2019-04-21T16:20:41.864Z,23.76
2019-04-21T16:23:08.725Z,23.89
2019-04-21T16:25:36.814Z,24.80
2019-04-21T16:28:05.612Z,24.48
2019-04-21T16:30:32.375Z,25.11
2019-04-21T16:32:59.886Z,25.36
2019-04-21T16:35:26.848Z,25.80
2019-04-21T16:37:56.871Z,25.92
2019-04-21T16:40:23.418Z,26.28
2019-04-21T16:42:50.273Z,26.64
2019-04-21T16:45:18.905Z,26.88
2019-04-21T16:47:47.480Z,27.22
2019-04-21T16:50:16.757Z,27.31
2019-04-21T16:52:43.788Z,27.54
2019-04-21T16:55:10.921Z,27.41
2019-04-21T16:57:37.802Z,27.50
2019-04-21T17:00:08.710Z,27.71
2019-04-21T17:02:36.722Z,27.97
2019-04-21T17:05:06.690Z,27.92
2019-04-21T17:07:33.667Z,28.08
2019-04-21T17:10:00.446Z,28.28
2019-04-21T17:12:28.799Z,28.87
2019-04-21T17:15:10.732Z,28.92
2019-04-21T17:17:45.870Z,29.06
2019-04-21T17:19:55.923Z,29.10
2019-04-21T17:22:21.904Z,29.51
2019-04-21T17:24:48.624Z,29.80
2019-04-21T17:27:15.486Z,30.11
2019-04-21T17:29:43.046Z,30.40
2019-04-21T17:32:09.922Z,30.71
2019-04-21T17:34:37.969Z,30.68
2019-04-21T17:37:05.538Z,30.76
2019-04-21T17:39:32.351Z,31.46
2019-04-21T17:42:11.755Z,31.78
2019-04-21T17:44:27.880Z,32.03
2019-04-21T17:47:01.535Z,32.48
2019-04-21T17:49:23.514Z,32.48
2019-04-21T17:51:55.641Z,32.65
2019-04-21T17:54:27.582Z,32.82
2019-04-21T17:57:13.689Z,32.97
2019-04-21T17:59:45.063Z,33.35
2019-04-21T18:02:03.933Z,33.71
2019-04-21T18:04:31.814Z,34.01
2019-04-21T18:07:05.098Z,34.38
2019-04-21T18:09:44.060Z,34.37
2019-04-21T18:12:07.547Z,34.75
2019-04-21T18:14:21.328Z,35.02
2019-04-21T18:16:48.641Z,35.32
2019-04-21T18:19:27.882Z,35.46
2019-04-21T18:21:56.044Z,35.87
2019-04-21T18:24:22.576Z,35.98
2019-04-21T18:26:54.390Z,36.05
2019-04-21T18:29:16.229Z,36.28
2019-04-21T18:31:48.314Z,36.37
2019-04-21T18:34:16.287Z,36.64
2019-04-21T18:36:45.492Z,36.75
2019-04-21T18:39:21.615Z,36.81
2019-04-21T18:41:42.685Z,37.27
2019-04-21T18:47:02.623Z,37.86
2019-04-21T18:49:06.254Z,37.80
2019-04-21T18:51:40.288Z,38.13
2019-04-21T18:54:20.960Z,38.50
2019-04-21T18:56:31.489Z,38.45
2019-04-21T18:58:58.446Z,38.44
2019-04-21T19:01:29.340Z,38.37
2019-04-21T19:03:56.012Z,38.38
2019-04-21T19:06:43.901Z,38.77
2019-04-21T19:09:11.594Z,38.82
2019-04-21T19:11:35.908Z,38.91
2019-04-21T19:17:02.617Z,39.27
2019-04-21T19:19:22.643Z,39.39
2019-04-21T19:21:31.149Z,39.54
2019-04-21T19:24:10.733Z,39.64
2019-04-21T19:26:38.030Z,39.65
2019-04-21T19:29:02.488Z,39.78
2019-04-21T19:31:31.559Z,40.00
2019-04-21T19:33:48.104Z,40.10
2019-04-21T19:36:07.523Z,40.44
2019-04-21T19:38:45.702Z,40.58
2019-04-21T19:41:20.462Z,40.47
2019-04-21T19:43:56.335Z,40.72
2019-04-21T19:46:18.108Z,40.71
2019-04-21T19:48:56.679Z,40.86
2019-04-21T19:51:15.475Z,41.01
2019-04-21T19:53:42.138Z,41.21
2019-04-21T19:55:56.190Z,41.22
2019-04-21T19:58:28.890Z,41.19
2019-04-21T20:00:55.546Z,41.54
2019-04-21T20:03:20.946Z,41.50
2019-04-21T20:05:59.350Z,41.77
2019-04-21T20:08:31.957Z,41.83
2019-04-21T20:11:05.286Z,42.15
2019-04-21T20:13:50.879Z,42.02
2019-04-21T20:16:03.915Z,42.04
2019-04-21T20:18:20.930Z,42.31
2019-04-21T20:20:41.121Z,42.13
2019-04-21T20:23:13.165Z,42.23
2019-04-21T20:25:45.943Z,42.35
2019-04-21T20:28:14.767Z,42.42
2019-04-21T20:30:49.023Z,42.59
2019-04-21T20:33:42.921Z,42.53
2019-04-21T20:35:55.825Z,42.52
2019-04-21T20:38:12.551Z,42.50
2019-04-21T20:40:39.975Z,42.46
2019-04-21T20:43:17.686Z,42.59
2019-04-21T20:45:48.330Z,42.77
2019-04-21T20:47:55.770Z,43.01
2019-04-21T20:50:33.483Z,43.19
2019-04-21T20:53:11.310Z,43.23
2019-04-21T20:55:29.709Z,43.40
2019-04-21T20:57:58.028Z,43.51
2019-04-21T21:00:45.197Z,43.50
2019-04-21T21:03:07.123Z,43.42
2019-04-21T21:05:28.405Z,43.57
2019-04-21T21:08:05.955Z,43.67
2019-04-21T21:10:25.137Z,43.52
2019-04-21T21:13:06.328Z,43.66
2019-04-21T21:15:25.942Z,43.78
2019-04-21T21:17:59.862Z,43.89
2019-04-21T21:20:33.528Z,43.93
2019-04-21T21:22:50.669Z,44.04
2019-04-21T21:25:38.315Z,44.04
2019-04-21T21:27:48.476Z,44.10
2019-04-21T21:30:21.611Z,44.21
2019-04-21T21:32:58.712Z,44.37
2019-04-21T21:35:19.249Z,44.40
2019-04-21T21:37:54.923Z,44.58
2019-04-21T21:40:21.817Z,44.70
2019-04-21T21:42:37.511Z,44.80
2019-04-21T21:45:08.355Z,44.83
2019-04-21T21:47:47.523Z,44.87
2019-04-21T21:50:07.329Z,45.00
2019-04-21T21:52:42.383Z,44.98
2019-04-21T21:54:55.984Z,45.03
2019-04-21T21:57:23.029Z,45.18
2019-04-21T21:59:54.332Z,45.25
2019-04-21T22:02:29.315Z,45.34
2019-04-21T22:04:58.254Z,45.37
2019-04-21T22:07:17.809Z,45.29
2019-04-21T22:09:44.342Z,45.29
2019-04-21T22:12:12.380Z,45.34
2019-04-21T22:14:44.883Z,45.34
2019-04-21T22:17:27.463Z,45.35
2019-04-21T22:20:06.092Z,45.35
2019-04-21T22:22:17.963Z,45.30
2019-04-21T22:24:46.472Z,45.30
2019-04-21T22:27:03.178Z,45.45
2019-04-21T22:29:38.139Z,45.59
2019-04-21T22:32:05.479Z,45.72
2019-04-21T22:34:32.702Z,45.63
2019-04-21T22:37:07.095Z,45.73
2019-04-21T22:39:43.433Z,46.00
2019-04-21T22:42:01.730Z,45.90
2019-04-21T22:44:22.728Z,45.87
2019-04-21T22:46:58.588Z,45.93
2019-04-21T22:49:19.713Z,45.94
2019-04-21T22:51:49.750Z,46.32
2019-04-21T22:54:20.779Z,46.42
2019-04-21T22:56:53.015Z,46.36
2019-04-21T22:59:18.655Z,46.34
2019-04-21T23:01:45.084Z,46.28
2019-04-21T23:04:10.715Z,46.34
2019-04-21T23:06:39.596Z,46.32
2019-04-21T23:09:08.795Z,46.44
2019-04-21T23:11:41.628Z,46.48
2019-04-21T23:14:08.100Z,46.60
2019-04-21T23:16:37.820Z,46.80
2019-04-21T23:19:21.991Z,46.88
2019-04-21T23:21:55.356Z,47.00
2019-04-21T23:24:14.823Z,47.13
2019-04-21T23:26:41.947Z,47.21
2019-04-21T23:29:17.338Z,47.35
2019-04-21T23:31:53.719Z,47.48
2019-04-21T23:33:58.134Z,47.31
2019-04-21T23:36:29.686Z,47.34
2019-04-21T23:38:55.393Z,47.44
2019-04-21T23:41:25.984Z,47.30
2019-04-21T23:43:57.613Z,47.16
2019-04-21T23:46:25.843Z,47.29
2019-04-21T23:49:01.701Z,47.58
2019-04-21T23:51:33.054Z,47.93
2019-04-21T23:53:45.034Z,47.90
2019-04-21T23:56:15.761Z,47.85
2019-04-21T23:58:40.398Z,47.97
